createdAt,value
2023-05-19T00:00:36.171Z,60.86
2023-05-19T00:01:36.185Z,61.60
2023-05-19T00:02:36.267Z,61.64
2023-05-19T00:03:36.206Z,63.97
2023-05-19T00:04:36.204Z,60.17
2023-05-19T00:05:36.236Z,61.57
2023-05-19T00:06:36.201Z,62.34
2023-05-19T00:07:36.187Z,64.19
2023-05-19T00:08:36.185Z,62.58
2023-05-19T00:09:36.177Z,62.23
2023-05-19T00:10:36.201Z,61.31
2023-05-19T00:11:36.187Z,63.09
2023-05-19T00:12:36.177Z,62.05
2023-05-19T00:13:36.165Z,60.45
2023-05-19T00:14:36.168Z,59.59
2023-05-19T00:15:36.213Z,63.65
2023-05-19T00:16:36.193Z,61.43
2023-05-19T00:17:36.186Z,62.23
2023-05-19T00:18:36.173Z,62.09
2023-05-19T00:19:36.163Z,62.11
2023-05-19T00:20:36.160Z,61.32
2023-05-19T00:21:36.152Z,60.51
2023-05-19T00:22:36.981Z,60.90
2023-05-19T00:23:36.132Z,61.90
2023-05-19T00:24:36.134Z,66.54
2023-05-19T00:25:36.147Z,61.55
2023-05-19T00:26:36.132Z,63.34
2023-05-19T00:27:36.149Z,63.05
2023-05-19T00:28:36.152Z,62.34
2023-05-19T00:29:36.159Z,60.34
2023-05-19T00:30:36.169Z,64.63
2023-05-19T00:31:36.178Z,61.33
2023-05-19T00:32:36.217Z,63.24
2023-05-19T00:33:36.142Z,63.47
2023-05-19T00:34:36.153Z,57.97
2023-05-19T00:35:36.148Z,64.11
2023-05-19T00:36:36.148Z,63.12
2023-05-19T00:37:36.135Z,61.34
2023-05-19T00:38:36.135Z,62.95
2023-05-19T00:39:36.133Z,64.08
2023-05-19T00:40:36.127Z,62.14
2023-05-19T00:41:36.125Z,60.75
2023-05-19T00:42:36.128Z,62.90
2023-05-19T00:43:36.128Z,62.24
2023-05-19T00:44:36.115Z,61.24
2023-05-19T00:45:36.138Z,61.35
2023-05-19T00:46:36.123Z,62.97
2023-05-19T00:47:37.028Z,61.25
2023-05-19T00:48:36.089Z,63.16
2023-05-19T00:49:36.094Z,61.46
2023-05-19T00:50:36.080Z,62.33
2023-05-19T00:51:36.069Z,61.91
2023-05-19T00:52:36.070Z,66.44
2023-05-19T00:53:36.072Z,60.87
2023-05-19T00:54:36.085Z,63.24
2023-05-19T00:55:36.280Z,62.36
2023-05-19T00:56:36.064Z,60.59
2023-05-19T00:57:36.084Z,61.84
2023-05-19T00:58:36.058Z,59.78
2023-05-19T00:59:36.040Z,59.94
2023-05-19T01:00:36.070Z,64.18
2023-05-19T01:01:36.049Z,62.39
2023-05-19T01:02:36.082Z,63.30
2023-05-19T01:03:36.112Z,64.14
2023-05-19T01:04:36.014Z,61.36
2023-05-19T01:05:36.010Z,63.10
2023-05-19T01:06:36.009Z,64.87
2023-05-19T01:07:35.991Z,60.43
2023-05-19T01:08:35.987Z,62.26
2023-05-19T01:09:35.996Z,61.42
2023-05-19T01:10:35.989Z,60.84
2023-05-19T01:11:35.989Z,61.24
2023-05-19T01:12:35.976Z,67.58
2023-05-19T01:13:35.989Z,65.99
2023-05-19T01:14:35.969Z,64.71
2023-05-19T01:15:35.971Z,63.36
2023-05-19T01:16:36.026Z,62.73
2023-05-19T01:17:36.013Z,63.97
2023-05-19T01:18:35.962Z,65.25
2023-05-19T01:19:35.954Z,62.45
2023-05-19T01:20:35.957Z,64.69
2023-05-19T01:21:35.962Z,63.60
2023-05-19T01:22:35.949Z,64.38
2023-05-19T01:23:35.932Z,65.16
2023-05-19T01:24:35.941Z,64.23
2023-05-19T01:25:35.939Z,64.81
2023-05-19T01:26:35.937Z,62.75
2023-05-19T01:27:35.925Z,62.26
2023-05-19T01:28:35.924Z,64.02
2023-05-19T01:29:35.918Z,63.14
2023-05-19T01:30:35.910Z,63.26
2023-05-19T01:31:35.954Z,66.27
2023-05-19T01:32:35.940Z,67.06
2023-05-19T01:33:35.909Z,63.70
2023-05-19T01:34:35.897Z,65.38
2023-05-19T01:35:35.905Z,63.58
2023-05-19T01:36:35.889Z,65.77
2023-05-19T01:37:35.888Z,61.80
2023-05-19T01:38:35.876Z,61.94
2023-05-19T01:39:35.883Z,64.62
2023-05-19T01:40:35.907Z,65.13
2023-05-19T01:41:35.905Z,64.24
2023-05-19T01:42:35.905Z,62.97
2023-05-19T01:43:35.929Z,64.95
2023-05-19T01:44:35.910Z,61.83
2023-05-19T01:45:35.956Z,65.28
2023-05-19T01:46:35.998Z,62.64
2023-05-19T01:47:35.995Z,64.34
2023-05-19T01:48:35.952Z,62.14
2023-05-19T01:49:35.963Z,62.76
2023-05-19T01:50:35.998Z,64.83
2023-05-19T01:51:36.028Z,60.83
2023-05-19T01:52:36.040Z,64.39
2023-05-19T01:53:36.102Z,64.45
2023-05-19T01:54:36.117Z,59.07
2023-05-19T01:55:36.117Z,57.26
2023-05-19T01:56:36.151Z,62.64
2023-05-19T01:57:36.176Z,63.63
2023-05-19T01:58:36.209Z,65.30
2023-05-19T01:59:36.235Z,63.07
2023-05-19T02:00:36.238Z,61.66
2023-05-19T02:01:36.301Z,62.04
2023-05-19T02:02:36.312Z,67.00
2023-05-19T02:03:36.276Z,63.58
2023-05-19T02:04:36.308Z,62.58
2023-05-19T02:05:36.273Z,65.84
2023-05-19T02:06:36.275Z,66.25
2023-05-19T02:07:36.286Z,61.68
2023-05-19T02:08:36.272Z,62.73
2023-05-19T02:09:36.280Z,63.85
2023-05-19T02:10:36.298Z,62.36
2023-05-19T02:11:36.322Z,67.96
2023-05-19T02:12:36.359Z,64.00
2023-05-19T02:13:36.383Z,64.96
2023-05-19T02:14:36.398Z,63.93
2023-05-19T02:15:36.481Z,61.70
2023-05-19T02:16:36.455Z,64.42
2023-05-19T02:17:36.583Z,63.73
2023-05-19T02:18:36.674Z,63.61
2023-05-19T02:19:36.597Z,61.91
2023-05-19T02:20:36.639Z,65.88
2023-05-19T02:21:36.710Z,66.74
2023-05-19T02:22:36.760Z,67.94
2023-05-19T02:23:36.815Z,62.26
2023-05-19T02:24:36.862Z,63.94
2023-05-19T02:25:36.928Z,65.86
2023-05-19T02:26:36.967Z,61.20
2023-05-19T02:27:37.021Z,65.16
2023-05-19T02:28:37.055Z,66.27
2023-05-19T02:29:37.536Z,64.86
2023-05-19T02:30:37.142Z,66.88
2023-05-19T02:31:37.258Z,62.60
2023-05-19T02:32:37.334Z,64.96
2023-05-19T02:33:37.266Z,66.10
2023-05-19T02:34:37.313Z,66.41
2023-05-19T02:35:37.355Z,63.68
2023-05-19T02:36:37.404Z,65.67
2023-05-19T02:37:37.438Z,65.51
2023-05-19T02:38:37.474Z,63.44
2023-05-19T02:39:37.526Z,65.89
2023-05-19T02:40:37.576Z,67.83
2023-05-19T02:41:37.624Z,64.36
2023-05-19T02:42:37.686Z,63.11
2023-05-19T02:43:37.781Z,65.58
2023-05-19T02:44:37.787Z,65.81
2023-05-19T02:45:37.846Z,63.98
2023-05-19T02:46:37.952Z,65.55
2023-05-19T02:47:37.997Z,63.63
2023-05-19T02:48:38.001Z,65.05
2023-05-19T02:49:38.077Z,63.54
2023-05-19T02:50:38.104Z,66.27
2023-05-19T02:51:38.160Z,66.38
2023-05-19T02:52:38.211Z,64.21
2023-05-19T02:53:38.261Z,66.17
2023-05-19T02:54:38.313Z,66.05
2023-05-19T02:55:38.382Z,64.32
2023-05-19T02:56:38.426Z,64.66
2023-05-19T02:57:38.477Z,60.45
2023-05-19T02:58:38.540Z,68.01
2023-05-19T02:59:38.559Z,66.73
2023-05-19T03:00:38.594Z,63.10
2023-05-19T03:01:38.655Z,66.17
2023-05-19T03:02:38.755Z,65.39
2023-05-19T03:03:38.797Z,67.10
2023-05-19T03:04:38.794Z,64.74
2023-05-19T03:05:38.831Z,65.78
2023-05-19T03:06:38.868Z,66.28
2023-05-19T03:07:38.895Z,62.83
2023-05-19T03:08:42.193Z,64.10
2023-05-19T03:09:38.933Z,69.09
2023-05-19T03:10:38.907Z,68.57
2023-05-19T03:11:38.906Z,63.26
2023-05-19T03:12:38.884Z,66.12
2023-05-19T03:13:38.882Z,65.15
2023-05-19T03:14:38.877Z,65.74
2023-05-19T03:15:38.885Z,66.51
2023-05-19T03:16:38.914Z,64.90
2023-05-19T03:17:38.907Z,64.92
2023-05-19T03:18:38.887Z,62.57
2023-05-19T03:19:38.835Z,65.76
2023-05-19T03:20:41.506Z,67.01
2023-05-19T03:21:38.830Z,67.08
2023-05-19T03:22:38.831Z,67.13
2023-05-19T03:23:38.813Z,65.47
2023-05-19T03:24:38.814Z,65.11
2023-05-19T03:25:38.798Z,67.10
2023-05-19T03:26:38.801Z,66.13
2023-05-19T03:27:38.781Z,65.83
2023-05-19T03:28:38.778Z,64.70
2023-05-19T03:29:38.773Z,68.54
2023-05-19T03:30:38.764Z,66.43
2023-05-19T03:31:38.769Z,67.26
2023-05-19T03:32:38.913Z,66.76
2023-05-19T03:33:38.794Z,65.98
2023-05-19T03:34:38.740Z,66.19
2023-05-19T03:35:38.730Z,65.48
2023-05-19T03:36:38.724Z,63.70
2023-05-19T03:37:38.730Z,68.86
2023-05-19T03:38:38.710Z,66.48
2023-05-19T03:39:38.727Z,66.16
2023-05-19T03:40:38.694Z,66.51
2023-05-19T03:41:38.696Z,66.37
2023-05-19T03:42:38.684Z,64.37
2023-05-19T03:43:38.672Z,68.64
2023-05-19T03:44:38.701Z,64.81
2023-05-19T03:45:38.758Z,66.59
2023-05-19T03:46:38.665Z,67.10
2023-05-19T03:47:38.689Z,66.32
2023-05-19T03:48:38.653Z,66.08
2023-05-19T03:49:38.631Z,64.86
2023-05-19T03:50:38.642Z,63.28
2023-05-19T03:51:38.618Z,62.14
2023-05-19T03:52:38.605Z,64.62
2023-05-19T03:53:38.601Z,66.72
2023-05-19T03:54:38.590Z,67.27
2023-05-19T03:55:38.587Z,65.50
2023-05-19T03:56:38.580Z,66.74
2023-05-19T03:57:38.563Z,67.86
2023-05-19T03:58:38.558Z,66.68
2023-05-19T03:59:38.558Z,62.46
2023-05-19T04:00:38.539Z,64.01
2023-05-19T04:01:38.602Z,68.74
2023-05-19T04:02:38.745Z,65.32
2023-05-19T04:03:38.822Z,64.71
2023-05-19T04:04:38.819Z,68.48
2023-05-19T04:05:38.887Z,67.04
2023-05-19T04:06:38.921Z,64.69
2023-05-19T04:07:39.561Z,67.68
2023-05-19T04:08:39.058Z,64.28
2023-05-19T04:09:39.097Z,67.32
2023-05-19T04:10:39.161Z,64.59
2023-05-19T04:11:39.220Z,70.13
2023-05-19T04:12:39.281Z,69.30
2023-05-19T04:13:39.339Z,62.61
2023-05-19T04:14:39.405Z,67.19
2023-05-19T04:15:39.486Z,62.63
2023-05-19T04:16:39.529Z,66.93
2023-05-19T04:17:39.621Z,63.87
2023-05-19T04:18:39.712Z,64.91
2023-05-19T04:19:39.717Z,68.96
2023-05-19T04:20:39.805Z,68.20
2023-05-19T04:21:39.844Z,68.49
2023-05-19T04:22:39.905Z,67.02
2023-05-19T04:23:39.998Z,65.50
2023-05-19T04:24:40.047Z,64.57
2023-05-19T04:25:40.118Z,65.84
2023-05-19T04:26:40.159Z,66.93
2023-05-19T04:27:40.230Z,67.12
2023-05-19T04:28:40.288Z,65.66
2023-05-19T04:29:40.354Z,65.91
2023-05-19T04:30:40.419Z,65.79
2023-05-19T04:31:40.537Z,65.78
2023-05-19T04:32:40.589Z,69.37
2023-05-19T04:33:40.605Z,67.08
2023-05-19T04:34:40.692Z,64.86
2023-05-19T04:35:40.720Z,63.92
2023-05-19T04:36:40.785Z,65.33
2023-05-19T04:37:40.850Z,66.25
2023-05-19T04:38:40.904Z,66.19
2023-05-19T04:39:40.965Z,64.63
2023-05-19T04:40:41.028Z,66.21
2023-05-19T04:41:41.090Z,67.75
2023-05-19T04:42:41.140Z,65.88
2023-05-19T04:43:41.199Z,66.15
2023-05-19T04:44:41.273Z,67.45
2023-05-19T04:45:41.322Z,64.99
2023-05-19T04:46:41.418Z,66.52
2023-05-19T04:47:41.461Z,68.37
2023-05-19T04:48:41.649Z,64.41
2023-05-19T04:49:41.558Z,65.60
2023-05-19T04:50:41.610Z,62.34
2023-05-19T04:51:41.697Z,67.43
2023-05-19T04:52:41.771Z,65.02
2023-05-19T04:53:41.807Z,66.17
2023-05-19T04:54:41.931Z,65.09
2023-05-19T04:55:41.925Z,61.62
2023-05-19T04:56:42.060Z,65.45
2023-05-19T04:57:42.033Z,65.22
2023-05-19T04:58:42.123Z,65.87
2023-05-19T04:59:42.161Z,65.53
2023-05-19T05:00:42.218Z,66.14
2023-05-19T05:01:42.365Z,64.20
2023-05-19T05:02:42.395Z,63.27
2023-05-19T05:03:42.507Z,67.44
2023-05-19T05:04:42.488Z,64.60
2023-05-19T05:05:42.528Z,66.21
2023-05-19T05:06:42.631Z,66.40
2023-05-19T05:07:42.644Z,67.54
2023-05-19T05:08:42.699Z,63.71
2023-05-19T05:09:42.766Z,66.30
2023-05-19T05:10:42.798Z,62.72
2023-05-19T05:11:42.872Z,67.65
2023-05-19T05:12:42.928Z,66.07
2023-05-19T05:13:43.014Z,63.57
2023-05-19T05:14:43.073Z,65.92
2023-05-19T05:15:43.121Z,63.00
2023-05-19T05:16:43.288Z,64.55
2023-05-19T05:17:43.249Z,64.87
2023-05-19T05:18:44.833Z,62.86
2023-05-19T05:19:43.345Z,64.15
2023-05-19T05:20:43.417Z,62.98
2023-05-19T05:21:43.460Z,64.08
2023-05-19T05:22:43.535Z,64.79
2023-05-19T05:23:43.621Z,63.99
2023-05-19T05:24:43.628Z,65.50
2023-05-19T05:25:43.682Z,64.03
2023-05-19T05:26:43.747Z,63.90
2023-05-19T05:27:43.823Z,65.41
2023-05-19T05:28:43.852Z,61.65
2023-05-19T05:29:43.917Z,64.19
2023-05-19T05:30:43.962Z,62.58
2023-05-19T05:31:44.016Z,64.46
2023-05-19T05:32:44.125Z,62.66
2023-05-19T05:33:44.177Z,62.84
2023-05-19T05:34:44.193Z,64.91
2023-05-19T05:35:44.236Z,64.29
2023-05-19T05:36:44.290Z,60.68
2023-05-19T05:37:44.345Z,59.46
2023-05-19T05:38:44.394Z,62.73
2023-05-19T05:39:44.460Z,62.00
2023-05-19T05:40:44.516Z,62.49
2023-05-19T05:41:44.569Z,62.08
2023-05-19T05:42:44.609Z,60.64
2023-05-19T05:43:44.669Z,61.45
2023-05-19T05:44:44.724Z,61.60
2023-05-19T05:45:44.815Z,58.93
2023-05-19T05:46:44.835Z,59.35
2023-05-19T05:47:44.919Z,60.81
2023-05-19T05:48:44.929Z,61.96
2023-05-19T05:49:45.050Z,61.66
2023-05-19T05:50:45.039Z,58.54
2023-05-19T05:51:54.626Z,64.37
2023-05-19T05:52:46.086Z,64.48
2023-05-19T05:53:45.078Z,64.59
2023-05-19T05:54:45.069Z,64.08
2023-05-19T05:55:45.053Z,61.00
2023-05-19T05:56:45.053Z,59.72
2023-05-19T05:57:45.052Z,58.74
2023-05-19T05:58:45.035Z,61.32
2023-05-19T05:59:45.019Z,60.17
2023-05-19T06:00:45.028Z,58.64
2023-05-19T06:01:45.027Z,57.71
2023-05-19T06:02:45.097Z,59.81
2023-05-19T06:03:45.233Z,60.31
2023-05-19T06:04:45.159Z,58.78
2023-05-19T06:05:45.263Z,59.59
2023-05-19T06:06:45.243Z,56.87
2023-05-19T06:07:45.292Z,57.16
2023-05-19T06:08:45.351Z,56.71
2023-05-19T06:09:45.407Z,59.79
2023-05-19T06:10:47.223Z,58.51
2023-05-19T06:11:45.518Z,57.30
2023-05-19T06:12:45.593Z,55.85
2023-05-19T06:13:45.625Z,57.22
2023-05-19T06:14:45.689Z,58.70
2023-05-19T06:15:45.759Z,56.38
2023-05-19T06:16:45.798Z,60.10
2023-05-19T06:17:45.870Z,57.36
2023-05-19T06:18:45.944Z,55.36
2023-05-19T06:19:45.975Z,55.93
2023-05-19T06:20:46.015Z,54.35
2023-05-19T06:21:46.070Z,58.09
2023-05-19T06:22:46.129Z,56.74
2023-05-19T06:23:46.190Z,55.27
2023-05-19T06:24:46.249Z,56.21
2023-05-19T06:25:46.313Z,54.21
2023-05-19T06:26:46.361Z,56.22
2023-05-19T06:27:46.455Z,57.59
2023-05-19T06:28:46.465Z,55.86
2023-05-19T06:29:46.533Z,52.42
2023-05-19T06:30:46.583Z,57.60
2023-05-19T06:31:46.722Z,54.16
2023-05-19T06:32:46.714Z,55.30
2023-05-19T06:33:46.758Z,52.70
2023-05-19T06:34:46.818Z,53.12
2023-05-19T06:35:46.868Z,52.06
2023-05-19T06:36:46.927Z,52.20
2023-05-19T06:37:46.980Z,55.00
2023-05-19T06:38:47.037Z,54.04
2023-05-19T06:39:47.078Z,50.89
2023-05-19T06:40:47.142Z,49.15
2023-05-19T06:41:47.194Z,54.96
2023-05-19T06:42:47.260Z,50.89
2023-05-19T06:43:47.314Z,52.97
2023-05-19T06:44:47.378Z,49.28
2023-05-19T06:45:47.428Z,53.06
2023-05-19T06:46:47.554Z,53.32
2023-05-19T06:47:47.564Z,53.12
2023-05-19T06:48:47.593Z,53.15
2023-05-19T06:49:47.664Z,50.16
2023-05-19T06:50:47.711Z,50.80
2023-05-19T06:51:47.772Z,51.94
2023-05-19T06:52:47.832Z,50.05
2023-05-19T06:53:47.862Z,49.59
2023-05-19T06:54:47.882Z,52.22
2023-05-19T06:55:58.179Z,52.43
2023-05-19T06:56:48.921Z,52.57
2023-05-19T06:57:47.921Z,52.49
2023-05-19T06:58:47.902Z,53.28
2023-05-19T06:59:47.909Z,52.64
2023-05-19T07:00:47.876Z,51.29
2023-05-19T07:01:47.924Z,51.55
2023-05-19T07:02:47.919Z,50.17
2023-05-19T07:03:47.946Z,49.29
2023-05-19T07:04:47.850Z,49.50
2023-05-19T07:05:47.843Z,48.17
2023-05-19T07:06:47.846Z,44.07
2023-05-19T07:07:47.827Z,43.77
2023-05-19T07:08:47.827Z,47.38
2023-05-19T07:09:47.850Z,49.48
2023-05-19T07:10:47.852Z,45.28
2023-05-19T07:11:47.908Z,46.14
2023-05-19T07:12:47.929Z,45.23
2023-05-19T07:13:47.980Z,42.18
2023-05-19T07:14:48.016Z,48.25
2023-05-19T07:15:48.095Z,44.36
2023-05-19T07:16:48.180Z,42.77
2023-05-19T07:17:48.192Z,48.47
2023-05-19T07:18:48.216Z,47.88
2023-05-19T07:19:48.244Z,44.41
2023-05-19T07:20:48.280Z,45.87
2023-05-19T07:21:48.327Z,47.82
2023-05-19T07:22:48.366Z,46.00
2023-05-19T07:23:48.432Z,44.66
2023-05-19T07:24:48.455Z,47.24
2023-05-19T07:25:48.488Z,44.89
2023-05-19T07:26:48.530Z,44.38
2023-05-19T07:27:48.568Z,48.25
2023-05-19T07:28:48.614Z,47.55
2023-05-19T07:29:48.648Z,43.83
2023-05-19T07:30:48.693Z,47.58
2023-05-19T07:31:48.749Z,45.21
2023-05-19T07:32:48.809Z,44.68
2023-05-19T07:33:48.821Z,45.57
2023-05-19T07:34:48.862Z,43.17
2023-05-19T07:35:48.905Z,42.73
2023-05-19T07:36:48.944Z,43.84
2023-05-19T07:37:48.980Z,46.96
2023-05-19T07:38:49.087Z,47.20
2023-05-19T07:39:49.060Z,45.86
2023-05-19T07:40:49.098Z,45.91
2023-05-19T07:41:49.144Z,42.60
2023-05-19T07:42:49.186Z,45.35
2023-05-19T07:43:49.213Z,44.64
2023-05-19T07:44:49.250Z,44.41
2023-05-19T07:45:49.346Z,45.72
2023-05-19T07:46:49.323Z,43.30
2023-05-19T07:47:49.454Z,43.60
2023-05-19T07:48:49.421Z,45.01
2023-05-19T07:49:51.665Z,44.28
2023-05-19T07:50:49.505Z,43.13
2023-05-19T07:51:49.551Z,41.51
2023-05-19T07:52:49.572Z,42.67
2023-05-19T07:53:49.610Z,41.00
2023-05-19T07:54:49.636Z,38.74
2023-05-19T07:55:49.674Z,39.70
2023-05-19T07:56:49.710Z,42.21
2023-05-19T07:57:49.746Z,39.82
2023-05-19T07:58:49.790Z,42.38
2023-05-19T07:59:49.803Z,36.37
2023-05-19T08:00:49.842Z,37.52
2023-05-19T08:01:49.866Z,35.52
2023-05-19T08:02:49.958Z,38.42
2023-05-19T08:03:50.162Z,41.38
2023-05-19T08:04:50.087Z,37.77
2023-05-19T08:05:49.980Z,40.80
2023-05-19T08:06:50.017Z,42.72
2023-05-19T08:07:50.064Z,41.17
2023-05-19T08:08:50.076Z,41.22
2023-05-19T08:09:50.114Z,36.99
2023-05-19T08:10:50.136Z,42.23
2023-05-19T08:11:50.168Z,39.04
2023-05-19T08:12:50.203Z,37.33
2023-05-19T08:13:50.235Z,40.36
2023-05-19T08:14:50.265Z,40.51
2023-05-19T08:15:50.309Z,39.74
2023-05-19T08:16:50.317Z,37.44
2023-05-19T08:17:50.397Z,39.48
2023-05-19T08:18:50.424Z,35.69
2023-05-19T08:19:50.453Z,37.24
2023-05-19T08:20:50.438Z,36.67
2023-05-19T08:21:50.474Z,36.39
2023-05-19T08:22:50.504Z,36.40
2023-05-19T08:23:50.524Z,37.26
2023-05-19T08:24:50.552Z,37.26
2023-05-19T08:25:50.577Z,41.58
2023-05-19T08:26:50.605Z,37.28
2023-05-19T08:27:50.628Z,37.98
2023-05-19T08:28:50.651Z,36.94
2023-05-19T08:29:50.683Z,33.51
2023-05-19T08:30:50.704Z,33.73
2023-05-19T08:31:50.822Z,36.58
2023-05-19T08:32:50.787Z,35.89
2023-05-19T08:33:50.772Z,34.39
2023-05-19T08:34:50.793Z,36.19
2023-05-19T08:35:50.877Z,34.08
2023-05-19T08:36:50.845Z,36.27
2023-05-19T08:37:50.871Z,35.26
2023-05-19T08:38:50.890Z,34.72
2023-05-19T08:39:50.921Z,35.69
2023-05-19T08:40:50.939Z,33.95
2023-05-19T08:41:50.972Z,31.77
2023-05-19T08:42:51.004Z,34.71
2023-05-19T08:43:51.003Z,34.82
2023-05-19T08:44:51.037Z,35.48
2023-05-19T08:45:51.049Z,32.40
2023-05-19T08:46:51.133Z,33.03
2023-05-19T08:47:51.186Z,33.54
2023-05-19T08:48:51.126Z,32.26
2023-05-19T08:49:51.212Z,37.58
2023-05-19T08:50:51.175Z,34.50
2023-05-19T08:51:51.206Z,35.37
2023-05-19T08:52:52.991Z,33.25
2023-05-19T08:53:51.237Z,33.55
2023-05-19T08:54:51.241Z,35.22
2023-05-19T08:55:51.251Z,35.58
2023-05-19T08:56:51.270Z,35.31
2023-05-19T08:57:51.300Z,37.35
2023-05-19T08:58:51.343Z,33.24
2023-05-19T08:59:51.351Z,34.85
2023-05-19T09:00:51.413Z,34.16
2023-05-19T09:01:51.367Z,36.62
2023-05-19T09:03:00.197Z,38.69
2023-05-19T09:03:52.443Z,38.83
2023-05-19T09:04:51.442Z,37.33
2023-05-19T09:05:51.579Z,37.44
2023-05-19T09:06:51.351Z,37.21
2023-05-19T09:07:51.352Z,37.82
2023-05-19T09:08:51.339Z,35.36
2023-05-19T09:09:51.329Z,35.12
2023-05-19T09:10:51.321Z,36.72
2023-05-19T09:11:51.340Z,34.53
2023-05-19T09:12:51.302Z,34.76
2023-05-19T09:13:51.308Z,33.33
2023-05-19T09:14:51.302Z,33.86
2023-05-19T09:15:51.290Z,36.43
2023-05-19T09:16:51.306Z,35.20
2023-05-19T09:17:51.355Z,35.06
2023-05-19T09:18:51.301Z,37.55
2023-05-19T09:19:51.244Z,34.44
2023-05-19T09:20:51.248Z,34.52
2023-05-19T09:21:51.243Z,35.62
2023-05-19T09:22:51.231Z,32.33
2023-05-19T09:23:51.225Z,37.27
2023-05-19T09:24:51.210Z,34.63
2023-05-19T09:25:51.216Z,34.28
2023-05-19T09:26:51.223Z,36.18
2023-05-19T09:27:51.263Z,33.65
2023-05-19T09:28:51.267Z,33.43
2023-05-19T09:29:51.277Z,33.49
2023-05-19T09:30:51.290Z,32.48
2023-05-19T09:31:51.360Z,29.33
2023-05-19T09:32:51.345Z,31.83
2023-05-19T09:33:51.330Z,30.94
2023-05-19T09:34:51.339Z,32.43
2023-05-19T09:35:51.355Z,31.95
2023-05-19T09:36:51.368Z,30.81
2023-05-19T09:37:51.393Z,32.19
2023-05-19T09:38:51.393Z,32.64
2023-05-19T09:39:51.402Z,32.31
2023-05-19T09:40:51.415Z,30.85
2023-05-19T09:41:51.443Z,30.99
2023-05-19T09:42:51.435Z,33.37
2023-05-19T09:43:51.450Z,33.42
2023-05-19T09:44:51.465Z,29.21
2023-05-19T09:45:51.489Z,29.71
2023-05-19T09:46:51.501Z,30.02
2023-05-19T09:47:51.509Z,28.72
2023-05-19T09:48:51.502Z,29.51
2023-05-19T09:49:51.512Z,29.14
2023-05-19T09:50:51.516Z,34.34
2023-05-19T09:51:51.545Z,30.01
2023-05-19T09:52:51.540Z,29.92
2023-05-19T09:53:51.558Z,30.98
2023-05-19T09:54:51.561Z,31.74
2023-05-19T09:55:51.564Z,34.16
2023-05-19T09:56:51.591Z,33.62
2023-05-19T09:57:51.620Z,31.25
2023-05-19T09:58:51.633Z,33.74
2023-05-19T09:59:51.644Z,30.55
2023-05-19T10:00:51.647Z,33.22
2023-05-19T10:01:51.694Z,30.41
2023-05-19T10:02:51.726Z,32.01
2023-05-19T10:03:51.677Z,31.98
2023-05-19T10:04:51.732Z,30.98
2023-05-19T10:05:51.683Z,31.40
2023-05-19T10:06:51.687Z,31.66
2023-05-19T10:07:51.722Z,30.55
2023-05-19T10:08:51.696Z,30.23
2023-05-19T10:09:51.707Z,30.55
2023-05-19T10:10:51.730Z,26.40
2023-05-19T10:11:51.722Z,33.52
2023-05-19T10:12:51.742Z,32.46
2023-05-19T10:13:51.738Z,30.20
2023-05-19T10:14:51.752Z,28.25
2023-05-19T10:16:51.785Z,30.17
2023-05-19T10:17:51.807Z,34.41
2023-05-19T10:18:51.770Z,30.74
2023-05-19T10:19:51.721Z,30.26
2023-05-19T10:20:51.718Z,33.85
2023-05-19T10:21:51.705Z,31.60
2023-05-19T10:22:51.700Z,31.17
2023-05-19T10:23:51.697Z,31.72
2023-05-19T10:24:51.698Z,30.91
2023-05-19T10:25:51.709Z,30.72
2023-05-19T10:26:51.667Z,28.88
2023-05-19T10:27:51.662Z,32.31
2023-05-19T10:28:51.656Z,27.84
2023-05-19T10:29:51.660Z,29.14
2023-05-19T10:30:51.637Z,30.43
2023-05-19T10:31:51.747Z,30.19
2023-05-19T10:32:51.672Z,32.04
2023-05-19T10:33:51.614Z,27.05
2023-05-19T10:34:51.607Z,29.72
2023-05-19T10:35:51.601Z,27.47
2023-05-19T10:36:51.597Z,29.52
2023-05-19T10:37:51.588Z,30.03
2023-05-19T10:38:51.572Z,28.65
2023-05-19T10:39:51.593Z,27.44
2023-05-19T10:40:51.577Z,31.81
2023-05-19T10:41:51.563Z,26.09
2023-05-19T10:42:51.544Z,29.07
2023-05-19T10:43:51.537Z,29.48
2023-05-19T10:44:51.544Z,30.57
2023-05-19T10:45:51.523Z,29.75
2023-05-19T10:46:51.994Z,29.56
2023-05-19T10:47:51.598Z,31.92
2023-05-19T10:48:51.509Z,28.71
2023-05-19T10:49:51.494Z,28.12
2023-05-19T10:50:51.489Z,29.21
2023-05-19T10:51:51.479Z,29.64
2023-05-19T10:52:51.468Z,27.87
2023-05-19T10:53:51.462Z,29.66
2023-05-19T10:54:51.503Z,30.45
2023-05-19T10:55:51.439Z,29.29
2023-05-19T10:56:51.443Z,29.50
2023-05-19T10:57:51.433Z,30.58
2023-05-19T10:58:51.409Z,26.01
2023-05-19T10:59:51.443Z,30.35
2023-05-19T11:00:51.404Z,27.48
2023-05-19T11:01:51.416Z,30.02
2023-05-19T11:02:51.406Z,25.54
2023-05-19T11:03:51.416Z,30.44
2023-05-19T11:04:52.044Z,27.57
2023-05-19T11:05:51.374Z,26.16
2023-05-19T11:06:51.380Z,30.96
2023-05-19T11:07:51.352Z,30.57
2023-05-19T11:08:51.344Z,27.99
2023-05-19T11:09:51.344Z,28.56
2023-05-19T11:10:51.334Z,25.70
2023-05-19T11:11:51.332Z,26.81
2023-05-19T11:12:52.122Z,29.55
2023-05-19T11:13:51.312Z,27.18
2023-05-19T11:14:52.221Z,28.11
2023-05-19T11:15:51.356Z,29.02
2023-05-19T11:16:51.309Z,30.98
2023-05-19T11:17:51.311Z,31.49
2023-05-19T11:18:51.313Z,30.67
2023-05-19T11:19:51.267Z,28.63
2023-05-19T11:20:51.298Z,31.23
2023-05-19T11:21:51.300Z,31.95
2023-05-19T11:22:51.248Z,29.39
2023-05-19T11:23:51.322Z,32.12
2023-05-19T11:24:51.223Z,29.81
2023-05-19T11:25:51.309Z,30.45
2023-05-19T11:26:51.206Z,32.64
2023-05-19T11:27:51.218Z,31.82
2023-05-19T11:28:51.189Z,32.92
2023-05-19T11:29:51.200Z,32.40
2023-05-19T11:30:51.174Z,32.09
2023-05-19T11:31:51.240Z,31.59
2023-05-19T11:32:51.794Z,29.39
2023-05-19T11:33:51.156Z,30.25
2023-05-19T11:34:51.150Z,31.03
2023-05-19T11:35:51.179Z,30.99
2023-05-19T11:36:51.139Z,30.40
2023-05-19T11:37:51.150Z,30.51
2023-05-19T11:38:51.119Z,32.54
2023-05-19T11:39:51.106Z,31.06
2023-05-19T11:40:51.095Z,30.59
2023-05-19T11:41:51.110Z,31.08
2023-05-19T11:42:51.085Z,30.15
2023-05-19T11:43:51.079Z,33.64
2023-05-19T11:44:51.104Z,31.97
2023-05-19T11:45:51.102Z,30.62
2023-05-19T11:46:51.154Z,33.07
2023-05-19T11:48:01.277Z,29.99
2023-05-19T11:48:52.040Z,30.34
2023-05-19T11:49:51.039Z,30.63
2023-05-19T11:50:51.089Z,31.19
2023-05-19T11:51:51.039Z,32.91
2023-05-19T11:52:51.016Z,33.58
2023-05-19T11:53:51.007Z,30.20
2023-05-19T11:54:51.004Z,32.72
2023-05-19T11:55:51.360Z,33.84
2023-05-19T11:56:50.992Z,32.13
2023-05-19T11:58:02.768Z,32.60
2023-05-19T11:58:51.974Z,32.89
2023-05-19T11:59:50.964Z,33.40
2023-05-19T12:00:50.964Z,32.97
2023-05-19T12:01:50.954Z,29.91
2023-05-19T12:02:51.018Z,32.73
2023-05-19T12:03:51.014Z,33.62
2023-05-19T12:04:50.980Z,34.22
2023-05-19T12:05:51.134Z,33.18
2023-05-19T12:06:50.920Z,33.23
2023-05-19T12:07:50.900Z,31.37
2023-05-19T12:08:50.912Z,31.65
2023-05-19T12:09:50.907Z,32.58
2023-05-19T12:10:50.904Z,32.17
2023-05-19T12:11:50.876Z,30.56
2023-05-19T12:12:50.869Z,33.42
2023-05-19T12:13:50.872Z,34.64
2023-05-19T12:14:50.853Z,28.86
2023-05-19T12:15:50.894Z,30.83
2023-05-19T12:16:50.926Z,29.87
2023-05-19T12:17:50.885Z,30.09
2023-05-19T12:18:50.848Z,29.03
2023-05-19T12:19:50.835Z,29.84
2023-05-19T12:20:50.802Z,32.39
2023-05-19T12:21:50.810Z,29.96
2023-05-19T12:22:50.807Z,28.80
2023-05-19T12:23:50.793Z,29.48
2023-05-19T12:24:50.783Z,27.84
2023-05-19T12:25:50.782Z,28.54
2023-05-19T12:26:50.766Z,28.56
2023-05-19T12:27:50.767Z,32.14
2023-05-19T12:28:50.754Z,27.27
2023-05-19T12:29:50.748Z,28.46
2023-05-19T12:30:50.744Z,26.26
2023-05-19T12:31:50.760Z,29.30
2023-05-19T12:32:50.787Z,30.10
2023-05-19T12:33:50.719Z,30.05
2023-05-19T12:34:50.708Z,31.02
2023-05-19T12:35:50.738Z,28.37
2023-05-19T12:36:50.694Z,30.73
2023-05-19T12:37:50.727Z,27.86
2023-05-19T12:38:50.680Z,32.50
2023-05-19T12:39:50.670Z,30.22
2023-05-19T12:40:50.673Z,31.05
2023-05-19T12:41:50.744Z,30.60
2023-05-19T12:42:50.648Z,30.65
2023-05-19T12:43:50.644Z,29.68
2023-05-19T12:44:50.648Z,30.49
2023-05-19T12:45:50.646Z,29.61
2023-05-19T12:46:50.617Z,31.44
2023-05-19T12:47:50.659Z,31.75
2023-05-19T12:48:50.614Z,29.96
2023-05-19T12:49:50.595Z,32.10
2023-05-19T12:50:50.593Z,30.93
2023-05-19T12:51:50.581Z,31.57
2023-05-19T12:52:50.580Z,32.17
2023-05-19T12:53:50.569Z,32.02